Time;durP1;ratioP1;P1;durP2;ratioP2;P2;SDS_P1;SDS_P2;PMS_P1;PMS_P2;Temp;Humidity;BMP_temperature;BMP_pressure;BME280_temperature;BME280_humidity;BME280_pressure;Samples;Min_cycle;Max_cycle;Signal;HPM_P1;HPM_P2
2021/05/27 00:03:58;;;;;;;1.70;1.60;;;12.00;99.90;;;;;;10444100;28;20217;-78
2021/05/27 00:09:00;;;;;;;4.50;1.57;;;12.00;99.90;;;;;;10416304;28;20229;-77
2021/05/27 00:14:02;;;;;;;1.73;1.47;;;12.10;99.90;;;;;;10440856;28;20734;-78
2021/05/27 00:19:04;;;;;;;1.70;1.60;;;12.10;99.90;;;;;;10450904;28;20205;-77
2021/05/27 00:24:07;;;;;;;1.77;1.67;;;12.10;99.90;;;;;;10465180;28;20271;-77
2021/05/27 00:29:09;;;;;;;1.50;1.50;;;12.10;99.90;;;;;;10430469;28;20201;-78
2021/05/27 00:34:11;;;;;;;1.83;1.60;;;12.20;99.90;;;;;;10439968;28;20324;-77
2021/05/27 00:39:13;;;;;;;1.70;1.60;;;12.20;99.90;;;;;;10443531;28;20203;-79
2021/05/27 00:44:22;;;;;;;1.77;1.67;;;12.30;99.90;;;;;;10437386;28;20654;-79
2021/05/27 00:49:26;;;;;;;1.43;1.33;;;12.30;99.90;;;;;;10421612;28;20205;-79
2021/05/27 00:54:28;;;;;;;1.87;1.77;;;12.30;99.90;;;;;;10436562;28;20247;-79
2021/05/27 00:59:32;;;;;;;1.83;1.70;;;12.30;99.90;;;;;;10433491;28;20216;-79
2021/05/27 01:04:35;;;;;;;1.77;1.60;;;12.20;99.90;;;;;;10442631;28;20232;-79
2021/05/27 01:09:37;;;;;;;1.87;1.77;;;12.30;99.90;;;;;;10458851;28;20665;-79
2021/05/27 01:19:59;;;;;;;1.93;1.80;;;12.30;99.90;;;;;;10432787;28;20200;-79
2021/05/27 01:25:06;;;;;;;1.77;1.67;;;12.30;99.90;;;;;;10442726;28;20715;-79
2021/05/27 01:30:10;;;;;;;1.80;1.70;;;12.30;99.90;;;;;;10438168;28;20618;-79
2021/05/27 01:35:16;;;;;;;1.73;1.50;;;12.30;99.90;;;;;;10446519;28;20231;-79
2021/05/27 01:40:21;;;;;;;1.87;1.77;;;12.30;99.90;;;;;;10458034;28;20723;-79
2021/05/27 01:45:23;;;;;;;1.83;1.73;;;12.30;99.90;;;;;;10447539;28;20229;-79
2021/05/27 01:50:25;;;;;;;1.90;1.80;;;12.30;99.90;;;;;;10457828;28;20224;-79
2021/05/27 01:55:29;;;;;;;1.80;1.70;;;12.30;99.90;;;;;;10441290;28;20322;-79
2021/05/27 02:00:31;;;;;;;1.80;1.70;;;12.30;99.90;;;;;;10446045;28;20198;-80
2021/05/27 02:05:33;;;;;;;1.43;1.33;;;12.30;99.90;;;;;;10439549;28;20225;-80
2021/05/27 02:10:38;;;;;;;1.80;1.70;;;12.30;99.90;;;;;;10462299;28;20820;-79
2021/05/27 02:15:40;;;;;;;2.03;1.83;;;12.30;99.90;;;;;;10462359;28;20217;-79
2021/05/27 02:20:43;;;;;;;1.80;1.70;;;12.30;99.90;;;;;;10452083;28;20221;-79
2021/05/27 02:25:47;;;;;;;2.30;2.20;;;12.30;99.90;;;;;;10444575;28;20236;-79
2021/05/27 02:31:07;;;;;;;2.03;1.70;;;12.40;99.90;;;;;;10457567;28;20610;-79
2021/05/27 02:36:13;;;;;;;1.80;1.70;;;12.30;99.90;;;;;;10465320;28;20803;-79
2021/05/27 02:41:16;;;;;;;2.03;1.87;;;12.30;99.90;;;;;;10442969;28;20205;-79
2021/05/27 02:46:20;;;;;;;2.00;1.80;;;12.30;99.90;;;;;;10425968;28;20237;-79
2021/05/27 02:51:27;;;;;;;2.17;2.07;;;12.30;99.90;;;;;;10445246;28;20198;-79
2021/05/27 02:56:30;;;;;;;1.77;1.67;;;12.30;99.90;;;;;;10433132;28;20572;-79
2021/05/27 03:01:34;;;;;;;1.97;1.77;;;12.30;99.90;;;;;;10432792;28;20221;-79
2021/05/27 03:06:36;;;;;;;1.80;1.70;;;12.40;99.90;;;;;;10428121;28;20358;-79
2021/05/27 03:11:39;;;;;;;1.77;1.67;;;12.40;99.90;;;;;;10454115;28;20201;-79
2021/05/27 03:16:41;;;;;;;2.10;1.80;;;12.40;99.90;;;;;;10405355;28;20225;-79
2021/05/27 03:21:43;;;;;;;1.77;1.67;;;12.40;99.90;;;;;;10451226;28;20217;-79
2021/05/27 03:26:52;;;;;;;2.00;1.90;;;12.40;99.90;;;;;;10421612;28;20212;-79
2021/05/27 03:31:54;;;;;;;1.70;1.60;;;12.40;99.90;;;;;;10436751;28;20200;-80
2021/05/27 03:36:57;;;;;;;2.10;2.00;;;12.30;99.90;;;;;;10434841;28;20237;-79
2021/05/27 03:42:00;;;;;;;4.27;1.93;;;12.30;99.90;;;;;;10437579;28;20695;-80
2021/05/27 03:47:02;;;;;;;2.00;1.90;;;12.30;99.90;;;;;;10444141;28;20224;-79
2021/05/27 03:52:05;;;;;;;2.00;1.90;;;12.20;99.90;;;;;;10423557;28;20226;-79
2021/05/27 03:57:08;;;;;;;2.10;1.90;;;12.30;99.90;;;;;;10409607;28;20670;-79
2021/05/27 04:02:10;;;;;;;2.30;2.10;;;12.20;99.90;;;;;;10425609;28;20294;-78
2021/05/27 04:07:35;;;;;;;1.90;1.80;;;12.20;99.90;;;;;;10424030;28;20217;-79
2021/05/27 04:12:45;;;;;;;2.27;2.17;;;12.20;99.90;;;;;;10441055;28;20681;-78
2021/05/27 04:17:48;;;;;;;2.77;2.57;;;12.20;99.90;;;;;;10439952;28;20224;-79
2021/05/27 04:22:49;;;;;;;2.20;1.90;;;12.10;99.90;;;;;;10430253;28;20225;-78
2021/05/27 04:27:53;;;;;;;1.90;1.80;;;12.10;99.90;;;;;;10453215;28;20203;-78
2021/05/27 04:33:02;;;;;;;2.00;1.90;;;12.10;99.90;;;;;;10423583;28;20415;-79
2021/05/27 04:38:06;;;;;;;2.30;2.10;;;12.10;99.90;;;;;;10433545;28;20649;-78
2021/05/27 04:43:09;;;;;;;2.00;1.90;;;12.10;99.90;;;;;;10446534;28;20228;-78
2021/05/27 04:48:15;;;;;;;2.87;2.40;;;12.10;99.90;;;;;;10454988;28;20568;-77
2021/05/27 04:53:18;;;;;;;2.13;2.03;;;12.20;99.90;;;;;;10441540;28;20285;-77
2021/05/27 04:58:21;;;;;;;2.40;1.70;;;12.20;99.90;;;;;;10418197;28;20197;-78
2021/05/27 05:03:22;;;;;;;2.40;2.30;;;12.10;99.90;;;;;;10422538;28;20679;-78
2021/05/27 05:08:24;;;;;;;2.50;2.30;;;12.20;99.90;;;;;;10422130;28;20201;-79
2021/05/27 05:13:27;;;;;;;2.83;2.63;;;12.20;99.90;;;;;;10426709;28;20442;-78
2021/05/27 05:18:28;;;;;;;2.40;2.30;;;12.20;99.90;;;;;;10421016;28;20448;-79
2021/05/27 05:23:30;;;;;;;2.67;2.53;;;12.30;99.90;;;;;;10422100;28;20302;-79
2021/05/27 05:28:32;;;;;;;2.27;2.17;;;12.30;99.90;;;;;;10429679;28;20209;-78
2021/05/27 05:33:34;;;;;;;2.80;2.50;;;12.30;99.90;;;;;;10438113;28;20225;-78
2021/05/27 05:38:36;;;;;;;5.13;2.40;;;12.40;99.90;;;;;;10451517;28;20232;-78
2021/05/27 05:43:38;;;;;;;3.00;2.83;;;12.50;99.90;;;;;;10463982;28;20217;-79
2021/05/27 05:48:40;;;;;;;2.80;2.57;;;12.50;99.90;;;;;;10445869;28;20205;-79
2021/05/27 05:53:41;;;;;;;2.73;2.60;;;12.60;99.90;;;;;;10458123;28;20217;-78
2021/05/27 05:58:44;;;;;;;3.20;3.00;;;12.70;99.90;;;;;;10463992;28;20212;-79
2021/05/27 06:03:45;;;;;;;2.93;2.63;;;12.70;99.50;;;;;;10446785;28;20235;-78
2021/05/27 06:09:25;;;;;;;2.27;2.07;;;12.80;98.70;;;;;;10476152;28;20213;-78
2021/05/27 06:14:28;;;;;;;2.60;2.40;;;12.80;98.20;;;;;;10450096;28;20308;-79
2021/05/27 06:19:29;;;;;;;2.57;2.47;;;12.80;99.10;;;;;;10463445;28;20444;-78
2021/05/27 06:24:48;;;;;;;2.83;2.57;;;12.80;98.30;;;;;;10461163;28;20228;-79
2021/05/27 06:29:50;;;;;;;2.70;2.50;;;12.90;96.10;;;;;;10462841;28;20197;-79
2021/05/27 06:34:52;;;;;;;3.30;2.70;;;13.00;97.00;;;;;;10465967;28;20286;-77
2021/05/27 06:39:54;;;;;;;2.70;2.50;;;13.20;95.90;;;;;;10462662;28;20585;-78
2021/05/27 06:44:56;;;;;;;2.30;2.10;;;13.40;94.80;;;;;;10462302;28;20233;-79
2021/05/27 06:49:58;;;;;;;4.27;2.43;;;13.80;93.80;;;;;;10460204;28;20633;-78
2021/05/27 06:55:00;;;;;;;2.40;2.30;;;14.00;93.60;;;;;;10458252;28;20217;-78
2021/05/27 07:00:05;;;;;;;2.63;2.20;;;14.30;92.70;;;;;;10454511;28;20760;-78
2021/05/27 07:05:07;;;;;;;1.90;1.80;;;14.60;93.10;;;;;;10443292;28;20221;-79
2021/05/27 07:10:10;;;;;;;2.60;2.40;;;15.00;93.40;;;;;;10442212;28;20232;-79
2021/05/27 07:15:14;;;;;;;5.90;2.20;;;15.30;92.10;;;;;;10460039;28;20239;-78
2021/05/27 07:20:16;;;;;;;2.53;2.33;;;15.60;90.90;;;;;;10459719;28;20309;-78
2021/05/27 07:25:20;;;;;;;2.00;1.90;;;15.70;91.00;;;;;;10454491;28;20232;-78
2021/05/27 07:30:25;;;;;;;2.07;1.97;;;15.70;91.00;;;;;;10460025;28;20242;-77
2021/05/27 07:35:28;;;;;;;2.03;1.93;;;15.50;87.10;;;;;;10453773;28;20308;-76
2021/05/27 07:40:31;;;;;;;3.17;2.33;;;15.30;87.70;;;;;;10453995;28;20661;-77
2021/05/27 07:45:34;;;;;;;2.23;2.03;;;15.40;89.80;;;;;;10453700;28;20651;-77
2021/05/27 07:50:35;;;;;;;2.00;1.90;;;15.90;89.30;;;;;;10453805;28;20225;-77
2021/05/27 07:55:37;;;;;;;2.00;1.90;;;16.40;84.90;;;;;;10451795;28;20213;-77
2021/05/27 08:00:40;;;;;;;2.10;2.00;;;17.10;83.90;;;;;;10453099;28;20205;-77
2021/05/27 08:05:42;;;;;;;2.50;2.30;;;17.50;79.60;;;;;;10448067;28;20228;-78
2021/05/27 08:11:02;;;;;;;2.60;2.30;;;17.40;79.90;;;;;;10448804;28;20209;-77
2021/05/27 08:16:06;;;;;;;2.43;2.33;;;17.70;78.30;;;;;;10454762;28;20209;-76
2021/05/27 08:21:14;;;;;;;2.10;2.00;;;17.80;77.90;;;;;;10449713;28;20628;-77
2021/05/27 08:26:16;;;;;;;1.77;1.53;;;18.00;79.40;;;;;;10456357;28;20221;-78
2021/05/27 08:31:19;;;;;;;3.03;2.10;;;18.30;76.40;;;;;;10465874;28;20204;-76
2021/05/27 08:36:21;;;;;;;2.10;2.00;;;18.10;73.80;;;;;;10461937;28;20221;-77
2021/05/27 08:41:22;;;;;;;1.77;1.67;;;18.50;72.80;;;;;;10453726;28;20366;-77
2021/05/27 08:46:25;;;;;;;1.47;1.37;;;19.30;69.00;;;;;;10453357;28;20229;-77
2021/05/27 08:51:29;;;;;;;1.87;1.77;;;19.80;69.20;;;;;;10452482;28;20197;-77
2021/05/27 08:56:30;;;;;;;2.10;1.90;;;20.10;67.80;;;;;;10455107;28;20598;-75
2021/05/27 09:01:33;;;;;;;2.43;2.23;;;20.00;61.30;;;;;;10454044;28;20207;-77
2021/05/27 09:06:50;;;;;;;1.90;1.80;;;19.40;66.10;;;;;;10453303;28;20251;-77
2021/05/27 09:11:51;;;;;;;2.27;2.07;;;18.90;66.10;;;;;;10452760;28;20268;-77
2021/05/27 09:16:58;;;;;;;2.20;2.00;;;19.40;68.70;;;;;;10459431;28;20212;-77
2021/05/27 09:22:01;;;;;;;2.30;1.80;;;20.10;60.30;;;;;;10457478;28;20684;-77
2021/05/27 09:27:03;;;;;;;2.73;2.53;;;20.60;63.60;;;;;;10460617;28;20205;-77
2021/05/27 09:32:06;;;;;;;2.10;2.00;;;20.30;62.50;;;;;;10459649;28;20248;-77
2021/05/27 09:37:18;;;;;;;2.53;2.33;;;19.90;61.20;;;;;;10459531;28;20241;-77
2021/05/27 09:42:21;;;;;;;2.70;1.57;;;19.40;64.00;;;;;;10459583;28;20221;-76
2021/05/27 09:47:34;;;;;;;5.53;2.37;;;18.90;63.80;;;;;;10459593;28;20242;-77
2021/05/27 09:52:40;;;;;;;1.80;1.70;;;18.50;61.70;;;;;;10453630;28;20217;-77
2021/05/27 09:57:43;;;;;;;2.17;1.70;;;18.20;63.50;;;;;;10458884;28;20657;-77
2021/05/27 10:02:45;;;;;;;2.00;1.90;;;18.20;58.90;;;;;;10458700;28;20320;-77
2021/05/27 10:07:49;;;;;;;2.40;2.20;;;18.20;60.10;;;;;;10444148;28;20205;-77
2021/05/27 10:12:52;;;;;;;2.63;2.40;;;18.10;59.00;;;;;;10442131;28;20280;-77
2021/05/27 10:17:58;;;;;;;2.17;2.00;;;18.20;62.10;;;;;;10441085;28;20303;-77
2021/05/27 10:23:01;;;;;;;2.33;2.07;;;18.40;60.40;;;;;;10455072;28;20224;-77
2021/05/27 10:28:05;;;;;;;2.00;1.90;;;18.30;60.60;;;;;;10445016;28;20243;-77
2021/05/27 10:33:14;;;;;;;1.93;1.83;;;18.00;62.00;;;;;;10471786;28;20225;-77
2021/05/27 10:38:17;;;;;;;3.53;1.90;;;17.70;61.70;;;;;;10452947;28;20248;-77
2021/05/27 10:43:19;;;;;;;2.10;2.00;;;17.40;63.30;;;;;;10438890;28;20315;-77
2021/05/27 10:48:25;;;;;;;2.47;2.30;;;17.30;62.60;;;;;;10432686;28;20212;-77
2021/05/27 10:53:50;;;;;;;2.10;2.00;;;17.20;64.20;;;;;;10457131;28;20221;-76
2021/05/27 10:59:14;;;;;;;2.20;2.10;;;17.00;64.50;;;;;;10432370;28;20311;-77
2021/05/27 11:04:25;;;;;;;3.53;2.03;;;17.20;64.30;;;;;;10443053;28;20221;-77
2021/05/27 11:09:37;;;;;;;2.70;2.40;;;17.50;62.70;;;;;;10440107;28;20197;-77
2021/05/27 11:14:40;;;;;;;3.07;2.77;;;17.70;61.60;;;;;;10439494;28;20220;-77
2021/05/27 11:19:48;;;;;;;2.07;1.97;;;17.80;63.10;;;;;;10412056;28;20258;-78
2021/05/27 11:25:27;;;;;;;2.50;2.30;;;18.10;61.50;;;;;;10442986;28;20279;-78
2021/05/27 11:30:32;;;;;;;2.13;1.90;;;18.40;61.90;;;;;;10442174;28;20202;-78
2021/05/27 11:35:44;;;;;;;2.13;1.63;;;18.50;62.60;;;;;;10443314;28;20228;-77
2021/05/27 11:40:47;;;;;;;1.67;1.57;;;18.30;59.70;;;;;;10433991;28;20216;-77
2021/05/27 11:45:51;;;;;;;2.33;2.23;;;18.30;58.40;;;;;;10441388;28;20251;-77
2021/05/27 11:51:00;;;;;;;2.10;2.00;;;18.30;62.10;;;;;;10448318;28;20617;-77
2021/05/27 11:56:02;;;;;;;1.97;1.80;;;18.40;59.00;;;;;;10440287;28;20229;-76
2021/05/27 12:01:19;;;;;;;1.67;1.57;;;18.40;60.50;;;;;;10428053;28;20737;-77
2021/05/27 12:06:21;;;;;;;2.23;1.97;;;18.30;60.10;;;;;;10446229;28;20225;-77
2021/05/27 12:11:30;;;;;;;3.30;2.10;;;18.40;58.90;;;;;;10434075;28;20198;-77
2021/05/27 12:16:33;;;;;;;1.43;1.43;;;18.60;57.30;;;;;;10428564;28;20279;-76
2021/05/27 12:21:36;;;;;;;2.20;2.00;;;18.70;58.50;;;;;;10417001;28;20669;-78
2021/05/27 12:26:48;;;;;;;1.87;1.87;;;18.80;58.50;;;;;;10427139;28;20232;-77
2021/05/27 12:31:51;;;;;;;2.00;1.90;;;18.80;60.20;;;;;;10450530;28;20209;-77
2021/05/27 12:36:59;;;;;;;1.90;1.80;;;18.80;58.20;;;;;;10459820;28;20269;-77
2021/05/27 12:42:01;;;;;;;2.07;1.97;;;18.80;59.50;;;;;;10439197;28;20201;-77
2021/05/27 12:47:12;;;;;;;1.90;1.80;;;18.90;58.00;;;;;;10452796;28;20241;-76
2021/05/27 12:52:42;;;;;;;1.97;1.77;;;19.10;58.40;;;;;;10453903;28;20216;-77
2021/05/27 12:57:51;;;;;;;2.07;1.97;;;19.40;56.30;;;;;;10446045;28;20254;-77
2021/05/27 13:03:05;;;;;;;2.07;1.97;;;19.30;56.50;;;;;;10446526;28;20236;-77
2021/05/27 13:08:08;;;;;;;1.50;1.50;;;19.00;58.50;;;;;;10441114;28;20228;-77
2021/05/27 13:13:09;;;;;;;2.00;1.90;;;18.80;58.40;;;;;;10423686;28;20553;-77
2021/05/27 13:18:13;;;;;;;1.90;1.80;;;18.70;59.80;;;;;;10453083;28;20696;-76
2021/05/27 13:23:22;;;;;;;1.90;1.80;;;18.90;59.10;;;;;;10454177;28;20301;-77
2021/05/27 13:28:26;;;;;;;4.00;1.63;;;19.10;60.00;;;;;;10438651;28;20197;-77
2021/05/27 13:33:27;;;;;;;1.90;1.80;;;19.30;57.70;;;;;;10451600;28;20237;-77
2021/05/27 13:38:33;;;;;;;1.80;1.70;;;19.40;55.70;;;;;;10445623;28;20193;-77
2021/05/27 13:43:35;;;;;;;3.00;2.33;;;19.50;54.40;;;;;;10439706;28;20213;-77
2021/05/27 13:48:37;;;;;;;2.20;2.10;;;19.30;56.40;;;;;;10453181;28;20221;-77
2021/05/27 13:53:39;;;;;;;2.47;2.30;;;19.10;58.10;;;;;;10435423;28;20275;-77
2021/05/27 13:58:41;;;;;;;2.00;1.90;;;19.10;58.80;;;;;;10445656;28;20209;-76
2021/05/27 14:03:42;;;;;;;2.10;2.00;;;19.10;57.30;;;;;;10451795;28;20608;-76
2021/05/27 14:08:45;;;;;;;2.03;1.93;;;19.20;56.00;;;;;;10450895;28;20205;-76
2021/05/27 14:13:48;;;;;;;2.40;1.73;;;19.10;56.50;;;;;;10457805;28;20299;-77
2021/05/27 14:18:50;;;;;;;2.30;1.97;;;19.10;56.80;;;;;;10453911;28;20206;-77
2021/05/27 14:23:53;;;;;;;2.20;2.00;;;18.90;56.60;;;;;;10445746;28;20225;-77
2021/05/27 14:28:54;;;;;;;1.90;1.80;;;18.50;56.20;;;;;;10451774;28;20204;-77
2021/05/27 14:33:56;;;;;;;2.53;2.33;;;18.30;59.00;;;;;;10444930;28;20224;-77
2021/05/27 14:38:58;;;;;;;3.53;2.03;;;18.20;58.10;;;;;;10450810;28;20205;-76
2021/05/27 14:44:00;;;;;;;3.40;2.03;;;18.10;58.40;;;;;;10458827;28;20236;-77
2021/05/27 14:49:02;;;;;;;1.77;1.67;;;17.90;58.60;;;;;;10439702;28;20209;-77
2021/05/27 14:54:05;;;;;;;2.10;2.00;;;17.90;57.10;;;;;;10451686;28;20225;-76
2021/05/27 14:59:07;;;;;;;1.80;1.70;;;18.00;57.00;;;;;;10449223;28;20673;-77
2021/05/27 15:04:08;;;;;;;1.60;1.50;;;18.00;58.90;;;;;;10445613;28;20221;-76
2021/05/27 15:09:11;;;;;;;2.13;1.93;;;18.00;57.60;;;;;;10449632;28;20646;-76
2021/05/27 15:14:12;;;;;;;2.17;1.97;;;17.90;58.90;;;;;;10431090;28;20253;-77
2021/05/27 15:19:15;;;;;;;2.20;2.10;;;17.90;58.80;;;;;;10437216;28;20692;-77
2021/05/27 15:24:18;;;;;;;2.97;2.77;;;17.80;59.60;;;;;;10443952;28;20217;-76
2021/05/27 15:29:22;;;;;;;1.97;1.60;;;17.80;61.60;;;;;;10439501;28;20198;-76
2021/05/27 15:34:26;;;;;;;2.43;2.20;;;17.90;59.20;;;;;;10445514;28;20228;-77
2021/05/27 15:39:29;;;;;;;2.30;2.10;;;17.90;60.00;;;;;;10434254;28;20285;-77
2021/05/27 15:44:30;;;;;;;2.27;2.17;;;18.00;61.10;;;;;;10436706;28;20232;-77
2021/05/27 15:49:32;;;;;;;1.90;1.83;;;18.10;58.70;;;;;;10437026;28;20200;-77
2021/05/27 15:54:35;;;;;;;2.20;2.10;;;18.10;59.80;;;;;;10428157;28;20209;-78
2021/05/27 15:59:37;;;;;;;1.67;1.57;;;18.30;58.50;;;;;;10445933;28;20229;-77
2021/05/27 16:04:40;;;;;;;2.13;2.00;;;18.30;57.30;;;;;;10441358;28;20233;-77
2021/05/27 16:09:44;;;;;;;2.27;2.10;;;18.20;57.20;;;;;;10455565;28;20209;-77
2021/05/27 16:14:46;;;;;;;1.70;1.60;;;18.10;59.60;;;;;;10447739;28;20308;-77
2021/05/27 16:19:47;;;;;;;3.67;1.37;;;18.10;59.00;;;;;;10451676;28;20197;-77
2021/05/27 16:24:50;;;;;;;1.87;1.77;;;18.00;59.40;;;;;;10445689;28;20764;-77
2021/05/27 16:29:52;;;;;;;2.47;1.77;;;18.00;60.10;;;;;;10419377;28;20229;-77
2021/05/27 16:34:59;;;;;;;2.57;2.37;;;17.90;62.40;;;;;;10422711;28;20290;-76
2021/05/27 16:40:01;;;;;;;2.10;2.00;;;17.90;62.60;;;;;;10424550;28;20216;-78
2021/05/27 16:45:04;;;;;;;2.10;2.00;;;18.00;61.60;;;;;;10402565;28;20268;-80
2021/05/27 16:50:07;;;;;;;7.40;2.90;;;18.00;60.50;;;;;;10427145;28;20212;-78
2021/05/27 16:55:11;;;;;;;2.00;1.90;;;18.00;60.60;;;;;;10426502;28;20283;-79
2021/05/27 17:00:14;;;;;;;2.17;2.07;;;17.90;61.40;;;;;;10426285;28;20202;-78
2021/05/27 17:05:18;;;;;;;2.50;2.30;;;17.80;62.20;;;;;;10427584;28;20317;-78
2021/05/27 17:10:21;;;;;;;2.43;2.33;;;17.70;63.40;;;;;;10428694;28;20194;-78
2021/05/27 17:15:25;;;;;;;2.00;1.90;;;17.70;63.70;;;;;;10429694;28;20776;-78
2021/05/27 17:20:27;;;;;;;2.50;1.90;;;17.70;62.10;;;;;;10422960;28;20576;-78
2021/05/27 17:25:32;;;;;;;2.10;2.00;;;17.50;62.80;;;;;;10434422;28;20293;-77
2021/05/27 17:30:34;;;;;;;3.37;2.60;;;17.40;63.00;;;;;;10445130;28;20249;-78
2021/05/27 17:35:36;;;;;;;2.70;2.50;;;17.30;65.10;;;;;;10420308;28;20720;-78
2021/05/27 17:40:39;;;;;;;2.20;2.10;;;17.30;63.80;;;;;;10427739;28;20286;-77
2021/05/27 17:45:41;;;;;;;2.23;2.07;;;17.20;64.00;;;;;;10433535;28;20233;-78
2021/05/27 17:50:43;;;;;;;3.00;2.20;;;17.10;66.40;;;;;;10439238;28;20201;-78
2021/05/27 17:55:45;;;;;;;1.90;1.80;;;17.10;65.00;;;;;;10437827;28;20248;-77
2021/05/27 18:00:47;;;;;;;2.17;2.07;;;17.00;66.00;;;;;;10439143;28;20248;-77
2021/05/27 18:05:49;;;;;;;2.10;2.00;;;17.00;66.40;;;;;;10451190;28;20232;-77
2021/05/27 18:10:52;;;;;;;2.43;2.23;;;16.80;71.20;;;;;;10449889;28;20293;-78
2021/05/27 18:15:54;;;;;;;2.33;2.23;;;16.60;73.00;;;;;;10447608;28;20304;-77
2021/05/27 18:20:56;;;;;;;2.40;2.23;;;16.50;73.40;;;;;;10457118;28;20247;-80
2021/05/27 18:25:59;;;;;;;2.93;2.37;;;16.50;73.60;;;;;;10462184;28;20225;-80
2021/05/27 18:31:03;;;;;;;2.87;2.57;;;16.40;73.50;;;;;;10466876;28;20707;-78
2021/05/27 18:36:06;;;;;;;2.67;2.47;;;16.40;73.70;;;;;;10455389;28;20239;-79
2021/05/27 18:41:09;;;;;;;2.47;2.27;;;16.40;74.00;;;;;;10464183;28;20343;-80
2021/05/27 18:46:11;;;;;;;2.80;2.60;;;16.30;76.00;;;;;;10447136;28;20798;-80
2021/05/27 18:51:12;;;;;;;3.07;2.87;;;16.30;74.70;;;;;;10453456;28;20202;-79
2021/05/27 18:56:15;;;;;;;2.77;2.57;;;16.20;82.50;;;;;;10452475;28;20217;-80
2021/05/27 19:01:21;;;;;;;4.57;2.70;;;16.00;85.30;;;;;;10451532;28;20209;-79
2021/05/27 19:06:25;;;;;;;3.30;3.10;;;15.90;87.30;;;;;;10460542;28;20596;-80
2021/05/27 19:11:28;;;;;;;3.30;3.00;;;15.70;89.30;;;;;;10452559;28;20215;-79
2021/05/27 19:16:29;;;;;;;4.00;3.70;;;15.60;89.90;;;;;;10444498;28;20221;-79
2021/05/27 19:21:31;;;;;;;3.90;3.60;;;15.60;89.60;;;;;;10437751;28;20630;-78
2021/05/27 19:26:34;;;;;;;3.93;3.63;;;15.50;91.00;;;;;;10445199;28;20313;-78
2021/05/27 19:31:35;;;;;;;3.33;3.13;;;15.40;91.50;;;;;;10434932;28;20208;-80
2021/05/27 19:36:37;;;;;;;4.00;3.67;;;15.40;91.20;;;;;;10437185;28;20228;-79
2021/05/27 19:41:40;;;;;;;3.37;3.07;;;15.30;91.60;;;;;;10442339;28;20283;-78
2021/05/27 19:46:41;;;;;;;3.40;3.20;;;15.20;91.80;;;;;;10446981;28;20748;-79
2021/05/27 19:51:43;;;;;;;4.20;3.80;;;15.20;91.90;;;;;;10415812;28;20217;-80
2021/05/27 19:56:45;;;;;;;3.73;3.37;;;15.20;92.00;;;;;;10429331;28;20225;-80
2021/05/27 20:01:47;;;;;;;3.20;3.00;;;15.20;91.20;;;;;;10453418;28;20209;-80
2021/05/27 20:06:49;;;;;;;3.40;3.20;;;15.10;91.90;;;;;;10429590;28;20231;-80
2021/05/27 20:11:51;;;;;;;2.97;2.77;;;15.20;91.90;;;;;;10409029;28;20265;-80
2021/05/27 20:16:53;;;;;;;3.00;2.70;;;15.20;91.40;;;;;;10430503;28;20572;-80
2021/05/27 20:21:55;;;;;;;3.20;3.00;;;15.10;91.90;;;;;;10440266;28;20289;-80
2021/05/27 20:26:58;;;;;;;3.50;2.90;;;15.10;92.10;;;;;;10443056;28;20308;-80
2021/05/27 20:32:00;;;;;;;3.30;3.03;;;15.10;91.20;;;;;;10453280;28;20217;-77
2021/05/27 20:37:01;;;;;;;2.93;2.73;;;15.10;91.20;;;;;;10455968;28;20459;-79
2021/05/27 20:42:07;;;;;;;3.20;2.73;;;15.10;91.40;;;;;;10454283;28;20201;-79
2021/05/27 20:47:08;;;;;;;2.50;2.30;;;15.20;91.70;;;;;;10425185;28;20241;-78
2021/05/27 20:52:10;;;;;;;3.53;3.27;;;15.20;91.70;;;;;;10444425;28;20303;-79
2021/05/27 20:57:12;;;;;;;3.10;2.87;;;15.20;91.50;;;;;;10429252;28;20712;-79
2021/05/27 21:02:15;;;;;;;3.07;2.87;;;15.20;91.20;;;;;;10449313;28;20307;-77
2021/05/27 21:07:16;;;;;;;2.73;2.53;;;15.20;90.80;;;;;;10445314;28;20697;-78
2021/05/27 21:12:19;;;;;;;4.93;2.43;;;15.10;91.30;;;;;;10448333;28;20771;-78
2021/05/27 21:17:21;;;;;;;2.83;2.63;;;15.10;91.00;;;;;;10439753;28;20201;-80
2021/05/27 21:22:23;;;;;;;4.60;2.87;;;15.00;91.10;;;;;;10448675;28;20256;-78
2021/05/27 21:27:25;;;;;;;2.90;2.70;;;15.00;91.40;;;;;;10449096;28;20629;-80
2021/05/27 21:32:27;;;;;;;3.60;3.37;;;15.00;91.40;;;;;;10454719;28;20649;-80
2021/05/27 21:37:28;;;;;;;2.90;2.70;;;15.00;91.50;;;;;;10430524;28;20210;-79
2021/05/27 21:42:31;;;;;;;3.33;3.13;;;15.00;91.70;;;;;;10443061;28;20677;-79
2021/05/27 21:47:32;;;;;;;2.93;2.83;;;15.00;92.00;;;;;;10458456;28;20315;-80
2021/05/27 21:52:34;;;;;;;2.70;2.50;;;14.90;92.20;;;;;;10423567;28;20335;-80
2021/05/27 21:57:37;;;;;;;3.77;3.37;;;14.80;92.10;;;;;;10449380;28;20207;-80
2021/05/27 22:02:38;;;;;;;2.67;2.57;;;14.70;92.50;;;;;;10471064;22;20222;-80
2021/05/27 22:07:40;;;;;;;4.40;2.67;;;14.60;92.80;;;;;;10416254;28;20198;-79
2021/05/27 22:12:43;;;;;;;2.73;2.53;;;14.50;92.90;;;;;;10408083;28;20361;-79
2021/05/27 22:17:46;;;;;;;2.83;2.63;;;14.40;93.90;;;;;;10394001;28;20198;-79
2021/05/27 22:22:47;;;;;;;3.10;2.90;;;14.40;93.30;;;;;;10414227;28;20218;-79
2021/05/27 22:27:50;;;;;;;6.10;3.80;;;14.40;93.80;;;;;;10405035;28;20202;-79
2021/05/27 22:32:52;;;;;;;2.70;2.50;;;14.40;93.70;;;;;;10390355;28;20253;-80
2021/05/27 22:37:54;;;;;;;2.80;2.60;;;14.40;93.70;;;;;;10395375;28;20293;-79
2021/05/27 22:42:57;;;;;;;3.10;2.90;;;14.40;94.00;;;;;;10412554;28;20337;-79
2021/05/27 22:47:59;;;;;;;2.90;2.60;;;14.40;93.60;;;;;;10394936;28;20203;-79
2021/05/27 22:53:01;;;;;;;4.43;2.83;;;14.40;94.10;;;;;;10387848;28;20219;-79
2021/05/27 22:58:04;;;;;;;2.90;2.70;;;14.40;94.00;;;;;;10413561;28;20213;-79
2021/05/27 23:03:06;;;;;;;2.87;2.67;;;14.50;93.90;;;;;;10407245;28;20348;-79
2021/05/27 23:08:11;;;;;;;2.93;2.73;;;14.40;93.90;;;;;;10400605;28;20548;-79
2021/05/27 23:13:20;;;;;;;3.07;2.87;;;14.40;94.50;;;;;;10396546;28;20221;-79
2021/05/27 23:18:22;;;;;;;2.53;2.30;;;14.50;94.30;;;;;;10407150;28;20209;-79
2021/05/27 23:23:24;;;;;;;4.67;3.20;;;14.50;94.00;;;;;;10394154;28;20214;-79
2021/05/27 23:29:06;;;;;;;2.90;2.70;;;14.50;93.90;;;;;;10392943;28;20285;-79
2021/05/27 23:34:14;;;;;;;3.03;2.73;;;14.50;93.90;;;;;;10385699;28;20910;-79
2021/05/27 23:39:16;;;;;;;2.77;2.67;;;14.40;94.80;;;;;;10402767;28;20213;-79
2021/05/27 23:44:33;;;;;;;4.87;3.50;;;14.40;94.50;;;;;;10406156;28;20210;-79
2021/05/27 23:49:39;;;;;;;4.20;3.90;;;14.40;94.30;;;;;;10385188;28;20638;-79
2021/05/27 23:54:50;;;;;;;4.83;3.90;;;14.40;93.80;;;;;;10376942;28;20219;-79
